Time;durP1;ratioP1;P1;durP2;ratioP2;P2;SDS_P1;SDS_P2;PMS_P1;PMS_P2;Temp;Humidity;BMP_temperature;BMP_pressure;BME280_temperature;BME280_humidity;BME280_pressure;Samples;Min_cycle;Max_cycle;Signal;HPM_P1;HPM_P2
2023/08/17 00:02:16;;;;;;;4.43;1.98;;;;;;;;;;4980517;28;20176;-71
2023/08/17 00:04:41;;;;;;;4.70;2.00;;;;;;;;;;4979426;28;20565;-73
2023/08/17 00:07:06;;;;;;;4.40;2.10;;;;;;;;;;4977853;28;20671;-72
2023/08/17 00:09:32;;;;;;;5.43;2.13;;;;;;;;;;4979829;28;20298;-71
2023/08/17 00:11:57;;;;;;;2.05;1.52;;;;;;;;;;4970977;28;20404;-71
2023/08/17 00:14:23;;;;;;;4.13;1.80;;;;;;;;;;4979095;28;20187;-71
2023/08/17 00:16:51;;;;;;;4.82;1.80;;;;;;;;;;4979447;28;20237;-72
2023/08/17 00:19:16;;;;;;;3.85;1.85;;;;;;;;;;4980328;28;20210;-71
2023/08/17 00:21:42;;;;;;;20.83;1.90;;;;;;;;;;4980526;28;20214;-71
2023/08/17 00:24:07;;;;;;;5.32;1.83;;;;;;;;;;4979246;28;20226;-71
2023/08/17 00:26:32;;;;;;;2.63;1.52;;;;;;;;;;4979660;28;20767;-71
2023/08/17 00:28:57;;;;;;;1.95;1.40;;;;;;;;;;4980930;28;20227;-71
2023/08/17 00:31:23;;;;;;;2.75;1.83;;;;;;;;;;4976692;28;20314;-71
2023/08/17 00:33:48;;;;;;;4.50;2.22;;;;;;;;;;4980243;28;20206;-71
2023/08/17 00:36:13;;;;;;;3.22;2.22;;;;;;;;;;4979468;28;20673;-71
2023/08/17 00:38:38;;;;;;;3.20;2.05;;;;;;;;;;4977835;28;20660;-71
2023/08/17 00:41:03;;;;;;;6.13;1.70;;;;;;;;;;4978883;28;20192;-71
2023/08/17 00:43:29;;;;;;;5.20;1.98;;;;;;;;;;4980491;28;20194;-71
2023/08/17 00:45:54;;;;;;;3.88;2.17;;;;;;;;;;4979626;28;20198;-72
2023/08/17 00:48:19;;;;;;;4.25;1.67;;;;;;;;;;4980514;28;20180;-71
2023/08/17 00:50:48;;;;;;;5.43;2.00;;;;;;;;;;4978957;28;20191;-71
2023/08/17 00:53:15;;;;;;;4.18;1.83;;;;;;;;;;4979381;28;20222;-71
2023/08/17 00:55:41;;;;;;;3.53;2.03;;;;;;;;;;4979704;28;20183;-71
2023/08/17 00:58:06;;;;;;;3.88;1.70;;;;;;;;;;4978670;28;20662;-71
2023/08/17 01:00:32;;;;;;;4.72;2.00;;;;;;;;;;4981067;28;20247;-71
2023/08/17 01:02:57;;;;;;;2.58;1.70;;;;;;;;;;4979592;28;20229;-71
2023/08/17 01:05:23;;;;;;;5.60;2.40;;;;;;;;;;4979241;28;20215;-71
2023/08/17 01:07:48;;;;;;;4.43;2.20;;;;;;;;;;4978336;28;20282;-71
2023/08/17 01:10:14;;;;;;;2.97;1.70;;;;;;;;;;4981266;28;20585;-71
2023/08/17 01:12:45;;;;;;;5.38;1.80;;;;;;;;;;4979732;28;20339;-71
2023/08/17 01:15:23;;;;;;;1.70;1.30;;;;;;;;;;4980301;28;20199;-71
2023/08/17 01:18:15;;;;;;;5.63;1.67;;;;;;;;;;4982367;28;20211;-71
2023/08/17 01:20:40;;;;;;;2.50;1.70;;;;;;;;;;4981108;28;20308;-71
2023/08/17 01:23:06;;;;;;;3.90;1.80;;;;;;;;;;4981003;28;20469;-72
2023/08/17 01:25:36;;;;;;;3.53;1.85;;;;;;;;;;4980799;28;20842;-71
2023/08/17 01:28:01;;;;;;;4.72;2.25;;;;;;;;;;4981241;28;21335;-71
2023/08/17 01:30:26;;;;;;;6.53;2.05;;;;;;;;;;4978666;28;20215;-71
2023/08/17 01:32:58;;;;;;;13.27;2.50;;;;;;;;;;4980826;28;20183;-71
2023/08/17 01:35:26;;;;;;;2.35;1.90;;;;;;;;;;4980313;28;20238;-71
2023/08/17 01:37:52;;;;;;;2.00;1.75;;;;;;;;;;4982800;28;20265;-71
2023/08/17 01:40:18;;;;;;;3.60;1.75;;;;;;;;;;4979940;28;20416;-71
2023/08/17 01:42:43;;;;;;;6.13;2.03;;;;;;;;;;4981573;28;20250;-71
2023/08/17 01:45:09;;;;;;;5.57;1.60;;;;;;;;;;4980434;28;20191;-71
2023/08/17 01:47:35;;;;;;;3.83;1.70;;;;;;;;;;4982160;28;20624;-71
2023/08/17 01:50:00;;;;;;;3.22;2.05;;;;;;;;;;4981073;28;20215;-71
2023/08/17 01:52:27;;;;;;;8.38;2.28;;;;;;;;;;4983652;28;20186;-71
2023/08/17 01:54:52;;;;;;;3.42;1.73;;;;;;;;;;4982684;28;20183;-71
2023/08/17 01:57:18;;;;;;;9.57;2.10;;;;;;;;;;4980278;28;20222;-71
2023/08/17 01:59:43;;;;;;;7.10;1.58;;;;;;;;;;4983178;28;20203;-71
2023/08/17 02:02:08;;;;;;;3.53;1.88;;;;;;;;;;4982522;28;20187;-71
2023/08/17 02:04:33;;;;;;;4.18;1.90;;;;;;;;;;4982341;28;20654;-71
2023/08/17 02:06:59;;;;;;;6.55;1.58;;;;;;;;;;4979564;28;20583;-71
2023/08/17 02:09:24;;;;;;;4.38;2.28;;;;;;;;;;4983092;28;20705;-71
2023/08/17 02:11:49;;;;;;;2.05;1.88;;;;;;;;;;4980150;28;20382;-71
2023/08/17 02:14:14;;;;;;;6.05;1.77;;;;;;;;;;4983364;28;20176;-71
2023/08/17 02:16:40;;;;;;;3.08;1.70;;;;;;;;;;4981668;28;20662;-71
2023/08/17 02:19:05;;;;;;;1.30;1.20;;;;;;;;;;4983277;28;20196;-71
2023/08/17 02:21:30;;;;;;;4.68;2.03;;;;;;;;;;4982463;28;20226;-72
2023/08/17 02:23:55;;;;;;;9.65;1.83;;;;;;;;;;4981611;28;20811;-71
2023/08/17 02:26:20;;;;;;;2.60;1.90;;;;;;;;;;4978725;28;20187;-71
2023/08/17 02:28:46;;;;;;;2.58;1.98;;;;;;;;;;4982408;28;20220;-71
2023/08/17 02:31:11;;;;;;;5.22;2.08;;;;;;;;;;4979760;28;20431;-71
2023/08/17 02:33:36;;;;;;;4.88;3.08;;;;;;;;;;4978154;28;20694;-71
2023/08/17 02:36:02;;;;;;;4.68;2.10;;;;;;;;;;4980627;28;20904;-71
2023/08/17 02:38:27;;;;;;;3.00;1.83;;;;;;;;;;4981225;28;20684;-71
2023/08/17 02:40:52;;;;;;;6.00;1.90;;;;;;;;;;4981609;28;20184;-71
2023/08/17 02:43:18;;;;;;;4.20;1.90;;;;;;;;;;4981397;28;20235;-71
2023/08/17 02:45:43;;;;;;;7.28;2.15;;;;;;;;;;4979033;28;20192;-71
2023/08/17 02:48:09;;;;;;;5.82;1.65;;;;;;;;;;4980386;28;20214;-71
2023/08/17 02:50:35;;;;;;;4.35;2.38;;;;;;;;;;4980876;28;20203;-71
2023/08/17 02:53:01;;;;;;;4.20;1.80;;;;;;;;;;4981810;28;20187;-72
2023/08/17 02:55:27;;;;;;;4.03;2.17;;;;;;;;;;4979603;28;20682;-71
2023/08/17 02:57:52;;;;;;;3.92;1.90;;;;;;;;;;4980862;28;20230;-71
2023/08/17 03:00:17;;;;;;;5.15;2.25;;;;;;;;;;4979328;28;20203;-71
2023/08/17 03:02:42;;;;;;;2.58;2.05;;;;;;;;;;4982239;28;20249;-70
2023/08/17 03:05:07;;;;;;;3.03;2.00;;;;;;;;;;4974248;28;20883;-71
2023/08/17 03:07:33;;;;;;;2.70;1.85;;;;;;;;;;4978674;28;20261;-71
2023/08/17 03:09:58;;;;;;;2.40;1.80;;;;;;;;;;4982080;28;20688;-71
2023/08/17 03:12:23;;;;;;;4.22;2.40;;;;;;;;;;4982123;28;20619;-71
2023/08/17 03:14:48;;;;;;;6.43;1.77;;;;;;;;;;4979091;28;20621;-70
2023/08/17 03:17:14;;;;;;;5.60;2.10;;;;;;;;;;4979366;28;21576;-71
2023/08/17 03:19:39;;;;;;;9.13;2.38;;;;;;;;;;4979395;28;20214;-71
2023/08/17 03:22:04;;;;;;;3.70;1.88;;;;;;;;;;4981218;28;20709;-71
2023/08/17 03:24:29;;;;;;;4.35;2.33;;;;;;;;;;4980143;28;20183;-71
2023/08/17 03:26:55;;;;;;;9.13;2.03;;;;;;;;;;4978151;28;20290;-71
2023/08/17 03:29:20;;;;;;;3.05;1.95;;;;;;;;;;4978500;28;20227;-71
2023/08/17 03:31:46;;;;;;;5.57;2.05;;;;;;;;;;4980958;28;20250;-71
2023/08/17 03:34:11;;;;;;;4.70;2.30;;;;;;;;;;4979739;28;20658;-72
2023/08/17 03:36:36;;;;;;;3.55;1.85;;;;;;;;;;4981181;28;20673;-72
2023/08/17 03:39:01;;;;;;;3.88;1.75;;;;;;;;;;4980097;28;20207;-72
2023/08/17 03:41:26;;;;;;;4.45;2.00;;;;;;;;;;4980740;28;20262;-72
2023/08/17 03:43:52;;;;;;;4.25;1.73;;;;;;;;;;4980318;28;20778;-71
2023/08/17 03:46:17;;;;;;;2.55;1.77;;;;;;;;;;4975486;28;20183;-72
2023/08/17 03:48:42;;;;;;;10.35;2.20;;;;;;;;;;4978673;28;20341;-72
2023/08/17 03:51:07;;;;;;;3.90;1.83;;;;;;;;;;4981033;28;20185;-72
2023/08/17 03:53:32;;;;;;;7.18;2.42;;;;;;;;;;4979581;28;20270;-72
2023/08/17 03:55:58;;;;;;;2.67;1.80;;;;;;;;;;4978796;28;20211;-72
2023/08/17 03:58:26;;;;;;;5.38;1.67;;;;;;;;;;4980330;28;20688;-72
2023/08/17 04:00:52;;;;;;;6.97;1.90;;;;;;;;;;4979116;28;20187;-72
2023/08/17 04:03:17;;;;;;;8.15;1.80;;;;;;;;;;4981874;28;20191;-72
2023/08/17 04:05:42;;;;;;;3.47;1.58;;;;;;;;;;4979940;28;21641;-72
2023/08/17 04:08:08;;;;;;;5.28;2.05;;;;;;;;;;4981828;28;20209;-71
2023/08/17 04:10:33;;;;;;;5.47;1.95;;;;;;;;;;4982702;28;20725;-72
2023/08/17 04:12:58;;;;;;;3.63;1.95;;;;;;;;;;4981369;28;20211;-72
2023/08/17 04:15:24;;;;;;;3.25;1.90;;;;;;;;;;4980189;28;20650;-72
2023/08/17 04:17:49;;;;;;;4.13;2.03;;;;;;;;;;4980292;28;20562;-72
2023/08/17 04:20:14;;;;;;;3.33;1.90;;;;;;;;;;4983079;28;20658;-71
2023/08/17 04:22:39;;;;;;;3.67;1.80;;;;;;;;;;4981561;28;20583;-72
2023/08/17 04:25:05;;;;;;;4.70;2.00;;;;;;;;;;4980601;28;20183;-72
2023/08/17 04:27:30;;;;;;;4.53;2.35;;;;;;;;;;4980318;28;20223;-72
2023/08/17 04:29:57;;;;;;;3.33;1.80;;;;;;;;;;4990088;23;20278;-66
2023/08/17 04:32:22;;;;;;;3.75;1.60;;;;;;;;;;4960485;28;20885;-66
2023/08/17 04:34:48;;;;;;;2.95;1.90;;;;;;;;;;4975064;28;20191;-67
2023/08/17 04:37:13;;;;;;;4.78;2.00;;;;;;;;;;4976728;28;20218;-67
2023/08/17 04:39:38;;;;;;;5.90;1.73;;;;;;;;;;4978221;28;20292;-67
2023/08/17 04:42:04;;;;;;;3.88;1.83;;;;;;;;;;4978785;28;20331;-67
2023/08/17 04:44:29;;;;;;;8.25;1.80;;;;;;;;;;4974101;28;20676;-67
2023/08/17 04:46:54;;;;;;;3.33;2.13;;;;;;;;;;4974068;28;20192;-68
2023/08/17 04:49:20;;;;;;;5.18;1.70;;;;;;;;;;4979200;28;20207;-66
2023/08/17 04:51:45;;;;;;;3.45;1.50;;;;;;;;;;4979997;28;20654;-66
2023/08/17 04:54:10;;;;;;;5.25;2.08;;;;;;;;;;4963687;28;20183;-66
2023/08/17 04:56:35;;;;;;;6.00;1.88;;;;;;;;;;4982228;28;20207;-66
2023/08/17 04:59:01;;;;;;;4.53;1.98;;;;;;;;;;4964071;28;20210;-67
2023/08/17 05:01:26;;;;;;;3.65;1.90;;;;;;;;;;4982987;28;20222;-66
2023/08/17 05:03:51;;;;;;;3.63;1.90;;;;;;;;;;4981913;28;20215;-66
2023/08/17 05:06:16;;;;;;;8.02;1.90;;;;;;;;;;4977389;28;20216;-66
2023/08/17 05:08:42;;;;;;;6.93;2.58;;;;;;;;;;4964084;28;21127;-67
2023/08/17 05:11:07;;;;;;;4.75;1.83;;;;;;;;;;4982245;28;20572;-67
2023/08/17 05:13:32;;;;;;;3.47;1.35;;;;;;;;;;4981921;28;20842;-66
2023/08/17 05:15:57;;;;;;;4.28;1.92;;;;;;;;;;4963082;28;20192;-67
2023/08/17 05:18:22;;;;;;;3.67;1.90;;;;;;;;;;4980744;28;20245;-66
2023/08/17 05:20:48;;;;;;;2.72;1.73;;;;;;;;;;4973499;28;20231;-66
2023/08/17 05:23:13;;;;;;;4.60;1.50;;;;;;;;;;4979692;28;20184;-67
2023/08/17 05:25:38;;;;;;;3.88;1.45;;;;;;;;;;4961888;28;20183;-66
2023/08/17 05:28:04;;;;;;;5.00;2.25;;;;;;;;;;4964262;28;20279;-67
2023/08/17 05:30:29;;;;;;;1.95;1.35;;;;;;;;;;4979889;28;20924;-66
2023/08/17 05:32:54;;;;;;;6.57;1.95;;;;;;;;;;4981618;28;21022;-66
2023/08/17 05:35:19;;;;;;;4.80;1.60;;;;;;;;;;4978556;28;20179;-67
2023/08/17 05:37:44;;;;;;;5.15;1.63;;;;;;;;;;4980743;28;20270;-67
2023/08/17 05:40:10;;;;;;;5.25;1.63;;;;;;;;;;4979989;28;20199;-67
2023/08/17 05:42:35;;;;;;;7.40;1.95;;;;;;;;;;4981520;28;20207;-67
2023/08/17 05:45:01;;;;;;;3.45;1.60;;;;;;;;;;4979280;28;20278;-67
2023/08/17 05:47:26;;;;;;;4.72;1.80;;;;;;;;;;4980449;28;20199;-67
2023/08/17 05:49:51;;;;;;;1.95;1.42;;;;;;;;;;4979597;28;21071;-66
2023/08/17 05:52:16;;;;;;;3.50;1.65;;;;;;;;;;4975024;28;20190;-66
2023/08/17 05:54:42;;;;;;;4.90;1.85;;;;;;;;;;4978106;28;20615;-66
2023/08/17 05:57:08;;;;;;;2.90;1.50;;;;;;;;;;4979903;28;20262;-66
2023/08/17 05:59:33;;;;;;;5.72;1.58;;;;;;;;;;4980829;28;20963;-67
2023/08/17 06:01:58;;;;;;;3.30;1.85;;;;;;;;;;4958112;28;20648;-66
2023/08/17 06:04:23;;;;;;;3.05;1.98;;;;;;;;;;4978552;28;20180;-66
2023/08/17 06:06:49;;;;;;;5.20;2.40;;;;;;;;;;4975542;28;20192;-67
2023/08/17 06:09:14;;;;;;;5.63;1.70;;;;;;;;;;4977918;28;20242;-66
2023/08/17 06:11:40;;;;;;;4.22;1.88;;;;;;;;;;4979895;28;20262;-66
2023/08/17 06:14:05;;;;;;;2.92;1.48;;;;;;;;;;4979718;28;20213;-67
2023/08/17 06:16:31;;;;;;;4.13;2.20;;;;;;;;;;4978573;28;20287;-67
2023/08/17 06:18:56;;;;;;;5.85;1.80;;;;;;;;;;4980671;28;20208;-67
2023/08/17 06:21:21;;;;;;;5.68;1.80;;;;;;;;;;4981100;28;20307;-67
2023/08/17 06:23:47;;;;;;;3.40;1.60;;;;;;;;;;4980821;28;20195;-67
2023/08/17 06:26:12;;;;;;;2.17;1.52;;;;;;;;;;4961767;28;20207;-67
2023/08/17 06:28:37;;;;;;;3.35;1.60;;;;;;;;;;4977264;28;21111;-67
2023/08/17 06:31:02;;;;;;;2.95;1.38;;;;;;;;;;4976881;28;20237;-67
2023/08/17 06:33:27;;;;;;;5.45;1.60;;;;;;;;;;4973319;28;20275;-67
2023/08/17 06:35:53;;;;;;;5.15;1.73;;;;;;;;;;4974023;28;20202;-69
2023/08/17 06:38:18;;;;;;;7.65;1.67;;;;;;;;;;4979950;28;20180;-66
2023/08/17 06:40:44;;;;;;;5.78;2.10;;;;;;;;;;4980228;28;20208;-67
2023/08/17 06:43:10;;;;;;;3.80;1.60;;;;;;;;;;4975412;28;20242;-67
2023/08/17 06:45:35;;;;;;;3.85;1.35;;;;;;;;;;4972182;28;20184;-66
2023/08/17 06:48:00;;;;;;;5.03;1.70;;;;;;;;;;4973199;28;20199;-67
2023/08/17 06:50:26;;;;;;;7.07;1.67;;;;;;;;;;4957655;28;20211;-67
2023/08/17 06:52:52;;;;;;;6.40;1.80;;;;;;;;;;4959041;28;20561;-66
2023/08/17 06:55:17;;;;;;;2.92;1.67;;;;;;;;;;4976974;28;20670;-66
2023/08/17 06:57:42;;;;;;;3.90;1.77;;;;;;;;;;4976781;28;20657;-67
2023/08/17 07:00:08;;;;;;;6.57;2.10;;;;;;;;;;4960994;28;20751;-66
2023/08/17 07:02:34;;;;;;;2.97;1.73;;;;;;;;;;4956751;28;20676;-66
2023/08/17 07:04:59;;;;;;;3.45;1.50;;;;;;;;;;4974809;28;20580;-66
2023/08/17 07:07:24;;;;;;;5.35;1.92;;;;;;;;;;4979476;28;20172;-66
2023/08/17 07:09:50;;;;;;;3.95;1.60;;;;;;;;;;4978525;28;20215;-65
2023/08/17 07:12:15;;;;;;;5.18;1.92;;;;;;;;;;4978829;28;20229;-66
2023/08/17 07:14:40;;;;;;;4.40;1.30;;;;;;;;;;4977889;28;20183;-65
2023/08/17 07:17:05;;;;;;;4.18;1.55;;;;;;;;;;4977080;28;20697;-68
2023/08/17 07:19:30;;;;;;;3.13;1.50;;;;;;;;;;4978584;28;20203;-66
2023/08/17 07:21:56;;;;;;;4.30;2.08;;;;;;;;;;4962662;28;20673;-67
2023/08/17 07:24:21;;;;;;;5.20;1.83;;;;;;;;;;4978055;28;20234;-67
2023/08/17 07:26:46;;;;;;;6.45;1.80;;;;;;;;;;4976015;28;20472;-67
2023/08/17 07:29:11;;;;;;;5.13;1.60;;;;;;;;;;4958704;28;20278;-66
2023/08/17 07:31:37;;;;;;;4.13;1.60;;;;;;;;;;4959111;28;21043;-66
2023/08/17 07:34:03;;;;;;;5.00;1.90;;;;;;;;;;4979019;28;20203;-67
2023/08/17 07:36:29;;;;;;;4.13;1.63;;;;;;;;;;4978993;28;20211;-67
2023/08/17 07:38:54;;;;;;;4.28;1.70;;;;;;;;;;4960071;28;20175;-67
2023/08/17 07:41:19;;;;;;;5.00;2.08;;;;;;;;;;4961741;28;20998;-66
2023/08/17 07:43:44;;;;;;;5.30;1.65;;;;;;;;;;4979255;28;20745;-66
2023/08/17 07:46:09;;;;;;;5.90;1.70;;;;;;;;;;4978788;28;21092;-66
2023/08/17 07:48:35;;;;;;;4.00;2.00;;;;;;;;;;4978521;28;20191;-66
2023/08/17 07:51:00;;;;;;;8.27;2.20;;;;;;;;;;4979031;28;20207;-66
2023/08/17 07:53:25;;;;;;;4.70;1.92;;;;;;;;;;4958713;28;20242;-66
2023/08/17 07:55:51;;;;;;;4.75;1.52;;;;;;;;;;4976096;28;20196;-68
2023/08/17 07:58:16;;;;;;;4.47;1.52;;;;;;;;;;4973302;28;20195;-66
2023/08/17 08:00:41;;;;;;;6.80;1.63;;;;;;;;;;4977305;28;20207;-66
2023/08/17 08:03:06;;;;;;;3.13;1.42;;;;;;;;;;4962209;28;20650;-67
2023/08/17 08:05:32;;;;;;;4.63;1.70;;;;;;;;;;4979461;28;20918;-67
2023/08/17 08:07:57;;;;;;;2.35;1.60;;;;;;;;;;4979717;28;20225;-66
2023/08/17 08:10:22;;;;;;;2.55;1.52;;;;;;;;;;4979312;28;20609;-67
2023/08/17 08:12:47;;;;;;;12.95;2.28;;;;;;;;;;4972235;28;20187;-70
2023/08/17 08:15:13;;;;;;;3.85;2.05;;;;;;;;;;4951192;28;20391;-69
2023/08/17 08:17:38;;;;;;;4.68;1.75;;;;;;;;;;4976552;28;20254;-69
2023/08/17 08:20:04;;;;;;;4.40;1.50;;;;;;;;;;4975925;28;20214;-70
2023/08/17 08:22:29;;;;;;;5.57;1.50;;;;;;;;;;4972409;28;20205;-69
2023/08/17 08:24:54;;;;;;;5.15;1.80;;;;;;;;;;4981378;28;20183;-69
2023/08/17 08:27:19;;;;;;;3.13;1.90;;;;;;;;;;4982631;28;20644;-70
2023/08/17 08:29:45;;;;;;;2.75;1.33;;;;;;;;;;4984334;28;20223;-70
2023/08/17 08:32:10;;;;;;;4.70;1.45;;;;;;;;;;4984206;28;20278;-70
2023/08/17 08:34:35;;;;;;;2.38;1.38;;;;;;;;;;4962335;28;22136;-70
2023/08/17 08:37:00;;;;;;;1.80;1.00;;;;;;;;;;4978243;28;20286;-70
2023/08/17 08:39:26;;;;;;;5.80;1.30;;;;;;;;;;4963448;28;20203;-70
2023/08/17 08:41:52;;;;;;;4.82;1.70;;;;;;;;;;4964897;28;20613;-70
2023/08/17 08:44:17;;;;;;;3.70;1.95;;;;;;;;;;4979047;28;20216;-69
2023/08/17 08:46:44;;;;;;;3.15;1.45;;;;;;;;;;4964141;28;20866;-70
2023/08/17 08:49:10;;;;;;;2.72;1.20;;;;;;;;;;4981431;28;20250;-70
2023/08/17 08:51:37;;;;;;;6.00;1.50;;;;;;;;;;4981426;28;20287;-69
2023/08/17 08:54:04;;;;;;;3.10;1.40;;;;;;;;;;4983069;28;20195;-70
2023/08/17 08:56:34;;;;;;;1.70;1.20;;;;;;;;;;4965769;28;21052;-69
2023/08/17 08:59:03;;;;;;;3.83;1.83;;;;;;;;;;4982354;28;20752;-69
2023/08/17 09:01:30;;;;;;;4.00;1.38;;;;;;;;;;4980193;28;20617;-70
2023/08/17 09:03:56;;;;;;;3.58;1.60;;;;;;;;;;4981340;28;20190;-69
2023/08/17 09:06:23;;;;;;;4.63;1.88;;;;;;;;;;4980590;28;20184;-69
2023/08/17 09:08:49;;;;;;;5.53;2.22;;;;;;;;;;4980556;28;20222;-69
2023/08/17 09:11:14;;;;;;;5.13;1.45;;;;;;;;;;4959709;28;20985;-68
2023/08/17 09:13:39;;;;;;;4.97;1.52;;;;;;;;;;4981939;28;20187;-69
2023/08/17 09:16:05;;;;;;;4.75;1.65;;;;;;;;;;4961568;28;20187;-67
2023/08/17 09:18:31;;;;;;;3.33;1.88;;;;;;;;;;4962639;28;20206;-69
2023/08/17 09:20:56;;;;;;;3.05;1.45;;;;;;;;;;4964985;28;20207;-69
2023/08/17 09:23:21;;;;;;;3.23;1.77;;;;;;;;;;4979548;28;20195;-69
2023/08/17 09:25:47;;;;;;;2.78;1.85;;;;;;;;;;4964550;28;20425;-69
2023/08/17 09:28:14;;;;;;;2.65;1.55;;;;;;;;;;4981236;28;20194;-69
2023/08/17 09:30:48;;;;;;;7.13;2.65;;;;;;;;;;4962738;28;20245;-69
2023/08/17 09:33:14;;;;;;;4.22;1.98;;;;;;;;;;4976007;28;20193;-69
2023/08/17 09:35:41;;;;;;;5.78;1.63;;;;;;;;;;4978730;28;20534;-69
2023/08/17 09:38:06;;;;;;;3.10;1.73;;;;;;;;;;4958865;28;20699;-69
2023/08/17 09:40:31;;;;;;;5.57;1.70;;;;;;;;;;4962560;28;20261;-69
2023/08/17 09:42:56;;;;;;;3.13;1.53;;;;;;;;;;4977848;28;20660;-69
2023/08/17 09:45:21;;;;;;;2.83;1.42;;;;;;;;;;4958391;28;20515;-70
2023/08/17 09:47:47;;;;;;;4.88;1.90;;;;;;;;;;4961216;28;20196;-69
2023/08/17 09:50:12;;;;;;;4.78;1.98;;;;;;;;;;4979931;28;20295;-70
2023/08/17 09:52:38;;;;;;;4.78;1.45;;;;;;;;;;4962499;28;20274;-69
2023/08/17 09:55:04;;;;;;;4.15;1.50;;;;;;;;;;4977854;28;20274;-69
2023/08/17 09:57:30;;;;;;;3.50;1.88;;;;;;;;;;4957317;28;20265;-69
2023/08/17 09:59:55;;;;;;;7.10;1.83;;;;;;;;;;4979419;28;20641;-69
2023/08/17 10:02:23;;;;;;;6.50;2.13;;;;;;;;;;4975610;28;20191;-69
2023/08/17 10:04:52;;;;;;;2.72;1.88;;;;;;;;;;4959686;28;20953;-69
2023/08/17 10:07:23;;;;;;;3.95;1.98;;;;;;;;;;4975577;28;20194;-68
2023/08/17 10:10:03;;;;;;;2.10;1.50;;;;;;;;;;4977749;28;20242;-70
2023/08/17 10:12:30;;;;;;;3.97;1.88;;;;;;;;;;4956627;28;20295;-70
2023/08/17 10:14:59;;;;;;;4.30;2.08;;;;;;;;;;4975144;28;20188;-70
2023/08/17 10:17:30;;;;;;;3.10;2.08;;;;;;;;;;4958845;28;20672;-70
2023/08/17 10:19:59;;;;;;;4.25;1.80;;;;;;;;;;4980333;28;20203;-70
2023/08/17 10:22:30;;;;;;;5.07;1.73;;;;;;;;;;4974645;28;21357;-69
2023/08/17 10:24:58;;;;;;;2.25;1.80;;;;;;;;;;4974713;28;20191;-70
2023/08/17 10:27:24;;;;;;;4.00;1.92;;;;;;;;;;4978989;28;20195;-69
2023/08/17 10:29:50;;;;;;;8.25;1.92;;;;;;;;;;4974032;23;20231;-73
2023/08/17 10:32:15;;;;;;;3.10;1.92;;;;;;;;;;4979866;28;20241;-72
2023/08/17 10:34:41;;;;;;;3.42;2.20;;;;;;;;;;4959654;28;20281;-72
2023/08/17 10:37:06;;;;;;;4.13;1.60;;;;;;;;;;4961372;28;20226;-72
2023/08/17 10:39:33;;;;;;;4.40;1.70;;;;;;;;;;4980873;28;20636;-72
2023/08/17 10:41:58;;;;;;;5.03;2.13;;;;;;;;;;4981809;28;20192;-72
2023/08/17 10:44:42;;;;;;;4.63;1.80;;;;;;;;;;4980394;28;20274;-71
2023/08/17 10:47:20;;;;;;;3.53;2.65;;;;;;;;;;4979326;28;20195;-71
2023/08/17 10:49:47;;;;;;;3.85;1.65;;;;;;;;;;4961422;28;20215;-72
2023/08/17 10:52:12;;;;;;;6.22;1.95;;;;;;;;;;4978567;28;20193;-71
2023/08/17 10:54:42;;;;;;;7.13;1.92;;;;;;;;;;4976831;28;20191;-72
2023/08/17 10:57:26;;;;;;;3.90;1.80;;;;;;;;;;4975215;28;20216;-71
2023/08/17 11:00:10;;;;;;;4.78;1.83;;;;;;;;;;4977164;28;20223;-72
2023/08/17 11:02:36;;;;;;;3.10;1.80;;;;;;;;;;4980115;28;20180;-71
2023/08/17 11:05:03;;;;;;;3.45;1.73;;;;;;;;;;4979812;28;20191;-72
2023/08/17 11:07:38;;;;;;;2.47;1.48;;;;;;;;;;4980649;28;20188;-71
2023/08/17 11:10:10;;;;;;;8.73;2.15;;;;;;;;;;4961678;28;20207;-73
2023/08/17 11:12:35;;;;;;;3.47;2.22;;;;;;;;;;4979032;28;20188;-71
2023/08/17 11:15:01;;;;;;;3.78;1.92;;;;;;;;;;4977327;28;20202;-72
2023/08/17 11:17:26;;;;;;;3.53;1.80;;;;;;;;;;4979965;28;20227;-71
2023/08/17 11:19:52;;;;;;;4.00;1.70;;;;;;;;;;4977569;28;20230;-71
2023/08/17 11:22:17;;;;;;;6.63;2.17;;;;;;;;;;4972748;28;20184;-71
2023/08/17 11:24:43;;;;;;;5.45;2.33;;;;;;;;;;4976205;28;20278;-72
2023/08/17 11:27:09;;;;;;;6.32;2.00;;;;;;;;;;4977652;28;20548;-72
2023/08/17 11:29:34;;;;;;;4.18;1.95;;;;;;;;;;4958801;28;20273;-72
2023/08/17 11:31:59;;;;;;;5.43;2.15;;;;;;;;;;4960878;28;20723;-72
2023/08/17 11:34:24;;;;;;;6.97;1.85;;;;;;;;;;4974282;28;20530;-72
2023/08/17 11:36:50;;;;;;;5.63;1.80;;;;;;;;;;4958287;28;20239;-71
2023/08/17 11:39:15;;;;;;;4.57;2.17;;;;;;;;;;4956903;28;20235;-72
2023/08/17 11:41:41;;;;;;;4.80;1.90;;;;;;;;;;4974467;28;20908;-72
2023/08/17 11:44:06;;;;;;;3.00;1.98;;;;;;;;;;4959639;28;20684;-72
2023/08/17 11:46:32;;;;;;;3.60;2.10;;;;;;;;;;4978038;28;20662;-72
2023/08/17 11:49:00;;;;;;;3.58;2.20;;;;;;;;;;4958739;28;20330;-72
2023/08/17 11:51:29;;;;;;;10.20;1.80;;;;;;;;;;4974966;28;20538;-72
2023/08/17 11:53:58;;;;;;;5.90;2.17;;;;;;;;;;4979454;28;20670;-72
2023/08/17 11:56:23;;;;;;;5.93;2.85;;;;;;;;;;4977100;28;20234;-72
2023/08/17 11:58:48;;;;;;;6.97;2.10;;;;;;;;;;4978570;28;20195;-72
2023/08/17 12:01:15;;;;;;;5.67;2.57;;;;;;;;;;4980004;28;20235;-72
2023/08/17 12:03:41;;;;;;;6.22;2.70;;;;;;;;;;4979124;28;20435;-73
2023/08/17 12:06:07;;;;;;;5.97;2.38;;;;;;;;;;4979766;28;20234;-73
2023/08/17 12:08:33;;;;;;;7.97;3.00;;;;;;;;;;4980501;28;21050;-72
2023/08/17 12:10:58;;;;;;;10.20;2.13;;;;;;;;;;4961196;28;20579;-72
2023/08/17 12:13:33;;;;;;;6.00;2.57;;;;;;;;;;4976748;28;20194;-72
2023/08/17 12:15:59;;;;;;;4.80;1.90;;;;;;;;;;4975659;28;20440;-73
2023/08/17 12:18:25;;;;;;;5.28;2.22;;;;;;;;;;4978204;28;20215;-72
2023/08/17 12:20:53;;;;;;;4.93;2.67;;;;;;;;;;4977358;28;20213;-72
2023/08/17 12:23:18;;;;;;;6.93;2.90;;;;;;;;;;4977872;28;20294;-71
2023/08/17 12:25:44;;;;;;;5.70;3.00;;;;;;;;;;4977944;28;20326;-71
2023/08/17 12:28:12;;;;;;;5.72;2.33;;;;;;;;;;4978664;28;20278;-71
2023/08/17 12:30:37;;;;;;;8.50;3.08;;;;;;;;;;4979377;28;20582;-71
2023/08/17 12:33:03;;;;;;;9.70;3.75;;;;;;;;;;4976038;28;20199;-72
2023/08/17 12:35:29;;;;;;;6.32;2.05;;;;;;;;;;4961337;28;20214;-72
2023/08/17 12:37:55;;;;;;;4.88;2.92;;;;;;;;;;4977955;28;20689;-70
2023/08/17 12:40:20;;;;;;;8.00;2.88;;;;;;;;;;4975188;28;20215;-70
2023/08/17 12:42:46;;;;;;;4.80;2.50;;;;;;;;;;4978883;28;20728;-70
2023/08/17 12:45:11;;;;;;;8.27;2.53;;;;;;;;;;4958865;28;20198;-71
2023/08/17 12:47:36;;;;;;;4.10;2.70;;;;;;;;;;4977710;28;21034;-70
2023/08/17 12:50:03;;;;;;;4.97;2.30;;;;;;;;;;4956845;28;20234;-71
2023/08/17 12:52:28;;;;;;;5.78;2.53;;;;;;;;;;4974164;28;20203;-71
2023/08/17 12:54:54;;;;;;;5.38;2.50;;;;;;;;;;4975456;28;20180;-70
2023/08/17 12:57:19;;;;;;;4.40;2.63;;;;;;;;;;4977582;28;20223;-70
2023/08/17 12:59:44;;;;;;;3.92;2.22;;;;;;;;;;4977875;28;20203;-71
2023/08/17 13:02:09;;;;;;;6.93;3.17;;;;;;;;;;4973827;28;20196;-71
2023/08/17 13:04:36;;;;;;;6.90;3.07;;;;;;;;;;4976713;28;20500;-71
2023/08/17 13:07:01;;;;;;;5.53;2.75;;;;;;;;;;4958818;28;20538;-71
2023/08/17 13:09:26;;;;;;;5.73;3.10;;;;;;;;;;4981611;28;20929;-72
2023/08/17 13:11:51;;;;;;;3.47;2.77;;;;;;;;;;4981440;28;20524;-71
2023/08/17 13:14:17;;;;;;;6.65;2.63;;;;;;;;;;4977148;28;20453;-71
2023/08/17 13:16:42;;;;;;;4.00;2.47;;;;;;;;;;4980542;28;20239;-71
2023/08/17 13:19:07;;;;;;;6.38;2.50;;;;;;;;;;4962734;28;20194;-71
2023/08/17 13:21:32;;;;;;;8.02;3.10;;;;;;;;;;4982720;28;20191;-71
2023/08/17 13:23:58;;;;;;;6.00;2.57;;;;;;;;;;4965456;28;20190;-71
2023/08/17 13:26:23;;;;;;;4.55;2.60;;;;;;;;;;4962784;28;20421;-71
2023/08/17 13:28:48;;;;;;;7.32;2.78;;;;;;;;;;4976312;28;20183;-71
2023/08/17 13:31:13;;;;;;;5.88;3.20;;;;;;;;;;4979154;28;20211;-72
2023/08/17 13:33:38;;;;;;;7.60;3.43;;;;;;;;;;4961565;28;20187;-71
2023/08/17 13:36:04;;;;;;;8.77;3.03;;;;;;;;;;4981659;28;20581;-71
2023/08/17 13:38:29;;;;;;;7.22;3.22;;;;;;;;;;4963876;28;20306;-70
2023/08/17 13:40:54;;;;;;;9.05;3.15;;;;;;;;;;4968843;28;20218;-71
2023/08/17 13:43:20;;;;;;;5.18;2.50;;;;;;;;;;4960915;28;20191;-71
2023/08/17 13:45:45;;;;;;;5.15;2.80;;;;;;;;;;4992854;28;20192;-71
2023/08/17 13:48:10;;;;;;;4.38;2.90;;;;;;;;;;4994696;28;20195;-72
2023/08/17 13:50:37;;;;;;;7.32;3.45;;;;;;;;;;4992595;28;20866;-71
2023/08/17 13:53:02;;;;;;;7.00;2.72;;;;;;;;;;4991414;28;20194;-71
2023/08/17 13:55:28;;;;;;;4.70;2.90;;;;;;;;;;4973530;28;20188;-72
2023/08/17 13:57:55;;;;;;;5.28;2.75;;;;;;;;;;4995210;28;20228;-72
2023/08/17 14:00:20;;;;;;;5.82;3.08;;;;;;;;;;4989840;28;20215;-73
2023/08/17 14:02:46;;;;;;;6.07;2.97;;;;;;;;;;4988269;28;20188;-72
2023/08/17 14:05:11;;;;;;;5.53;3.08;;;;;;;;;;4962126;28;20319;-72
2023/08/17 14:07:36;;;;;;;5.38;2.65;;;;;;;;;;4985191;28;20226;-72
2023/08/17 14:10:02;;;;;;;5.65;2.97;;;;;;;;;;4965385;28;20310;-72
2023/08/17 14:12:27;;;;;;;3.70;2.67;;;;;;;;;;4986384;28;20320;-72
2023/08/17 14:14:52;;;;;;;6.05;2.80;;;;;;;;;;4982817;28;20191;-72
2023/08/17 14:17:18;;;;;;;6.25;2.97;;;;;;;;;;4966684;28;20768;-72
2023/08/17 14:19:43;;;;;;;3.67;2.38;;;;;;;;;;4963283;28;20605;-72
2023/08/17 14:22:08;;;;;;;3.78;2.67;;;;;;;;;;4976429;28;20966;-71
2023/08/17 14:24:33;;;;;;;6.63;2.90;;;;;;;;;;4978979;28;20195;-72
2023/08/17 14:26:59;;;;;;;5.50;3.40;;;;;;;;;;4981399;28;20573;-72
2023/08/17 14:29:24;;;;;;;5.18;3.17;;;;;;;;;;4977379;28;20653;-73
2023/08/17 14:31:49;;;;;;;5.78;2.80;;;;;;;;;;4962136;28;21021;-72
2023/08/17 14:34:15;;;;;;;6.05;3.40;;;;;;;;;;4965857;28;20187;-72
2023/08/17 14:36:40;;;;;;;5.75;2.90;;;;;;;;;;4961335;28;21210;-70